createdAt,value
2019-02-27T00:02:10.582Z,101454.25
2019-02-27T00:04:38.327Z,101454.25
2019-02-27T00:07:06.184Z,101455.30
2019-02-27T00:09:52.610Z,101450.06
2019-02-27T00:12:20.671Z,101450.06
2019-02-27T00:17:25.925Z,101441.42
2019-02-27T00:19:53.574Z,101441.42
2019-02-27T00:22:39.843Z,101442.44
2019-02-27T00:25:07.454Z,101442.44
2019-02-27T00:27:53.723Z,101436.42
2019-02-27T00:30:40.065Z,101429.13
2019-02-27T00:33:28.631Z,101434.43
2019-02-27T00:36:14.435Z,101430.11
2019-02-27T00:39:00.788Z,101430.11
2019-02-27T00:41:28.408Z,101423.28
2019-02-27T00:46:47.195Z,101425.17
2019-02-27T00:49:17.321Z,101428.41
2019-02-27T00:54:19.528Z,101424.10
2019-02-27T00:56:47.177Z,101422.16
2019-02-27T00:59:33.713Z,101424.16
2019-02-27T01:02:01.337Z,101414.67
2019-02-27T01:04:49.616Z,101416.98
2019-02-27T01:07:20.294Z,101416.98
2019-02-27T01:09:46.450Z,101414.92
2019-02-27T01:12:14.018Z,101414.92
2019-02-27T01:15:00.417Z,101408.38
2019-02-27T01:17:27.962Z,101407.02
2019-02-27T01:19:55.532Z,101407.02
2019-02-27T01:22:42.212Z,101405.62
2019-02-27T01:25:09.910Z,101403.86
2019-02-27T01:27:38.183Z,101403.86
2019-02-27T01:30:27.949Z,101395.03
2019-02-27T01:32:55.631Z,101395.03
2019-02-27T01:38:28.505Z,101388.86
2019-02-27T01:41:15.137Z,101388.16
2019-02-27T01:44:01.535Z,101388.75
2019-02-27T01:46:29.490Z,101386.36
2019-02-27T01:49:16.700Z,101384.11
2019-02-27T01:52:03.137Z,101372.25
2019-02-27T01:54:30.606Z,101372.25
2019-02-27T01:57:17.035Z,101369.08
2019-02-27T01:59:45.036Z,101365.83
2019-02-27T02:02:12.598Z,101356.94
2019-02-27T02:04:58.870Z,101356.94
2019-02-27T02:07:26.462Z,101350.64
2019-02-27T02:09:55.045Z,101350.64
2019-02-27T02:12:42.270Z,101342.67
2019-02-27T02:15:10.027Z,101339.67
2019-02-27T02:17:38.221Z,101339.67
2019-02-27T02:20:06.830Z,101326.14
2019-02-27T02:22:34.338Z,101326.14
2019-02-27T02:25:02.125Z,101317.78
2019-02-27T02:27:48.453Z,101307.27
2019-02-27T02:30:34.779Z,101302.35
2019-02-27T02:33:02.374Z,101302.35
2019-02-27T02:35:50.684Z,101293.97
2019-02-27T02:38:18.001Z,101299.16
2019-02-27T02:40:45.730Z,101290.27
2019-02-27T02:43:32.092Z,101289.77
2019-02-27T02:45:59.683Z,101276.55
2019-02-27T02:48:27.828Z,101277.77
2019-02-27T02:51:15.453Z,101284.31
2019-02-27T02:53:43.155Z,101284.31
2019-02-27T02:56:10.804Z,101280.16
2019-02-27T02:58:38.404Z,101280.69
2019-02-27T03:01:06.134Z,101280.69
2019-02-27T03:03:37.251Z,101280.56
2019-02-27T03:06:21.760Z,101270.67
2019-02-27T03:09:08.168Z,101265.54
2019-02-27T03:11:35.793Z,101265.54
2019-02-27T03:14:03.379Z,101267.36
2019-02-27T03:16:49.776Z,101262.91
2019-02-27T03:19:41.275Z,101257.66
2019-02-27T03:22:07.159Z,101257.66
2019-02-27T03:24:53.813Z,101252.02
2019-02-27T03:27:21.470Z,101252.02
2019-02-27T03:29:53.468Z,101253.48
2019-02-27T03:32:43.142Z,101258.87
2019-02-27T03:35:06.856Z,101256.89
2019-02-27T03:37:34.553Z,101256.89
2019-02-27T03:40:20.962Z,101253.97
2019-02-27T03:42:48.502Z,101251.52
2019-02-27T03:45:35.201Z,101245.86
2019-02-27T03:48:02.863Z,101250.70
2019-02-27T03:50:30.524Z,101250.70
2019-02-27T03:53:16.911Z,101249.30
2019-02-27T03:55:47.172Z,101244.16
2019-02-27T03:58:14.916Z,101244.16
2019-02-27T04:03:18.219Z,101235.24
2019-02-27T04:05:46.701Z,101235.24
2019-02-27T04:11:19.421Z,101223.91
2019-02-27T04:14:05.830Z,101223.54
2019-02-27T04:16:33.451Z,101222.29
2019-02-27T04:19:04.589Z,101225.88
2019-02-27T04:21:30.682Z,101225.88
2019-02-27T04:23:58.249Z,101221.19
2019-02-27T04:26:44.688Z,101216.37
2019-02-27T04:29:12.371Z,101216.37
2019-02-27T04:31:59.033Z,101206.95
2019-02-27T04:34:45.438Z,101213.50
2019-02-27T04:37:13.078Z,101214.34
2019-02-27T04:39:59.434Z,101214.34
2019-02-27T04:42:27.191Z,101213.13
2019-02-27T04:44:55.240Z,101213.13
2019-02-27T04:47:22.871Z,101209.83
2019-02-27T04:49:50.426Z,101201.98
2019-02-27T04:52:36.827Z,101208.11
2019-02-27T04:55:04.454Z,101204.61
2019-02-27T04:58:03.210Z,101201.07
2019-02-27T05:00:20.573Z,101201.07
2019-02-27T05:03:07.270Z,101198.56
2019-02-27T05:08:21.341Z,101209.20
2019-02-27T05:10:48.980Z,101200.94
2019-02-27T05:13:20.703Z,101196.19
2019-02-27T05:15:45.761Z,101196.19
2019-02-27T05:18:13.617Z,101196.80
2019-02-27T05:20:44.953Z,101196.80
2019-02-27T05:23:10.498Z,101191.23
2019-02-27T05:25:38.306Z,101186.03
2019-02-27T05:28:05.787Z,101186.97
2019-02-27T05:30:33.393Z,101186.97
2019-02-27T05:33:02.245Z,101181.25
2019-02-27T05:35:48.998Z,101181.22
2019-02-27T05:38:16.555Z,101176.97
2019-02-27T05:40:44.177Z,101176.97
2019-02-27T05:43:33.252Z,101166.89
2019-02-27T05:46:02.955Z,101173.08
2019-02-27T05:48:50.927Z,101173.08
2019-02-27T05:51:18.037Z,101174.08
2019-02-27T05:54:04.435Z,101178.72
2019-02-27T05:56:31.987Z,101182.33
2019-02-27T05:59:18.399Z,101187.70
2019-02-27T06:01:45.866Z,101187.70
2019-02-27T06:04:19.425Z,101189.06
2019-02-27T06:07:05.766Z,101187.37
2019-02-27T06:09:33.381Z,101179.35
2019-02-27T06:12:01.189Z,101177.92
2019-02-27T06:14:28.827Z,101177.92
2019-02-27T06:16:56.418Z,101191.58
2019-02-27T06:19:42.796Z,101191.58
2019-02-27T06:22:10.415Z,101189.83
2019-02-27T06:24:58.847Z,101189.83
2019-02-27T06:27:37.204Z,101188.81
2019-02-27T06:30:04.441Z,101188.81
2019-02-27T06:32:50.859Z,101189.51
2019-02-27T06:35:18.901Z,101192.63
2019-02-27T06:40:51.954Z,101172.67
2019-02-27T06:43:38.373Z,101172.67
2019-02-27T06:46:06.017Z,101170.98
2019-02-27T06:48:33.896Z,101170.20
2019-02-27T06:51:20.220Z,101168.04
2019-02-27T06:54:08.934Z,101168.04
2019-02-27T06:56:36.504Z,101169.78
2019-02-27T06:59:25.231Z,101172.91
2019-02-27T07:01:52.808Z,101171.22
2019-02-27T07:04:20.669Z,101174.72
2019-02-27T07:07:07.050Z,101170.60
2019-02-27T07:09:53.371Z,101170.60
2019-02-27T07:12:40.162Z,101164.88
2019-02-27T07:15:26.534Z,101177.67
2019-02-27T07:17:57.308Z,101177.67
2019-02-27T07:20:30.208Z,101172.95
2019-02-27T07:22:59.454Z,101159.52
2019-02-27T07:25:45.794Z,101153.52
2019-02-27T07:30:48.032Z,101144.09
2019-02-27T07:33:15.746Z,101144.09
2019-02-27T07:36:03.672Z,101147.30
2019-02-27T07:38:31.565Z,101147.30
2019-02-27T07:40:59.124Z,101145.52
2019-02-27T07:43:26.612Z,101139.00
2019-02-27T07:46:13.043Z,101132.44
2019-02-27T07:48:40.788Z,101131.52
2019-02-27T07:51:27.164Z,101131.52
2019-02-27T07:53:54.859Z,101141.66
2019-02-27T07:59:01.081Z,101128.75
2019-02-27T08:01:28.591Z,101128.48
2019-02-27T08:04:19.066Z,101109.81
2019-02-27T08:07:04.090Z,101106.69
2019-02-27T08:09:50.492Z,101106.69
2019-02-27T08:12:19.984Z,101111.35
2019-02-27T08:15:06.479Z,101111.53
2019-02-27T08:17:57.426Z,101112.19
2019-02-27T08:20:40.967Z,101100.19
2019-02-27T08:23:10.881Z,101106.52
2019-02-27T08:25:38.970Z,101103.24
2019-02-27T08:28:06.494Z,101103.24
2019-02-27T08:30:34.050Z,101096.74
2019-02-27T08:33:01.927Z,101092.73
2019-02-27T08:35:29.517Z,101095.38
2019-02-27T08:38:02.516Z,101095.38
2019-02-27T08:40:45.220Z,101094.56
2019-02-27T08:43:12.815Z,101094.56
2019-02-27T08:45:41.977Z,101095.23
2019-02-27T08:48:09.597Z,101085.90
2019-02-27T08:50:37.551Z,101080.07
2019-02-27T08:53:36.446Z,101080.07
2019-02-27T08:59:12.318Z,101066.02
2019-02-27T09:04:33.388Z,101057.42
2019-02-27T09:09:51.662Z,101060.30
2019-02-27T09:12:18.969Z,101049.72
2019-02-27T09:15:05.327Z,101054.67
2019-02-27T09:17:33.255Z,101046.45
2019-02-27T09:20:01.122Z,101046.92
2019-02-27T09:22:40.893Z,101046.92
2019-02-27T09:25:11.155Z,101040.14
2019-02-27T09:27:40.769Z,101029.78
2019-02-27T09:30:08.378Z,101029.78
2019-02-27T09:33:04.877Z,101010.66
2019-02-27T09:35:24.672Z,101010.66
2019-02-27T09:38:11.067Z,101008.36
2019-02-27T09:40:39.532Z,101005.37
2019-02-27T09:43:27.196Z,101001.91
2019-02-27T09:45:56.220Z,100995.53
2019-02-27T09:49:07.071Z,100993.63
2019-02-27T09:51:11.977Z,100988.59
2019-02-27T09:53:42.314Z,100995.01
2019-02-27T09:56:11.578Z,100995.01
2019-02-27T09:58:45.076Z,100993.23
2019-02-27T10:01:29.185Z,100993.23
2019-02-27T10:03:58.879Z,100989.42
2019-02-27T10:06:45.457Z,100987.28
2019-02-27T10:09:12.999Z,100987.28
2019-02-27T10:11:40.914Z,100987.40
2019-02-27T10:14:27.320Z,100973.25
2019-02-27T10:16:55.276Z,100973.25
2019-02-27T10:19:22.922Z,100977.02
2019-02-27T10:21:50.590Z,100969.02
2019-02-27T10:24:37.611Z,100959.27
2019-02-27T10:27:05.283Z,100959.27
2019-02-27T10:29:33.267Z,100962.94
2019-02-27T10:32:19.579Z,100957.41
2019-02-27T10:34:47.213Z,100953.38
2019-02-27T10:37:18.237Z,100951.33
2019-02-27T10:42:18.619Z,100945.55
2019-02-27T10:45:09.695Z,100934.76
2019-02-27T10:47:36.516Z,100927.75
2019-02-27T10:50:22.578Z,100926.94
2019-02-27T10:52:50.342Z,100923.28
2019-02-27T10:55:19.734Z,100924.92
2019-02-27T10:57:47.353Z,100922.08
2019-02-27T11:00:15.016Z,100919.02
2019-02-27T11:02:47.953Z,100912.00
2019-02-27T11:05:15.134Z,100914.87
2019-02-27T11:07:43.980Z,100912.66
2019-02-27T11:10:24.972Z,100905.01
2019-02-27T11:12:41.192Z,100912.00
2019-02-27T11:18:05.591Z,100901.19
2019-02-27T11:20:31.131Z,100901.19
2019-02-27T11:22:58.970Z,100897.17
2019-02-27T11:25:26.569Z,100894.95
2019-02-27T11:27:54.145Z,100890.72
2019-02-27T11:30:22.037Z,100882.34
2019-02-27T11:32:49.577Z,100881.89
2019-02-27T11:35:22.112Z,100873.97
2019-02-27T11:37:49.460Z,100871.70
2019-02-27T11:40:17.341Z,100871.70
2019-02-27T11:42:45.526Z,100856.53
2019-02-27T11:45:13.060Z,100854.95
2019-02-27T11:47:45.115Z,100849.27
2019-02-27T11:50:17.825Z,100844.15
2019-02-27T11:52:49.115Z,100842.05
2019-02-27T11:55:17.346Z,100838.59
2019-02-27T11:57:45.203Z,100833.11
2019-02-27T12:03:19.841Z,100814.22
2019-02-27T12:05:47.312Z,100808.86
2019-02-27T12:08:15.148Z,100807.17
2019-02-27T12:10:56.982Z,100802.39
2019-02-27T12:13:32.336Z,100796.26
2019-02-27T12:16:00.691Z,100784.73
2019-02-27T12:23:49.422Z,100777.28
2019-02-27T12:26:37.539Z,100771.25
2019-02-27T12:29:38.289Z,100766.18
2019-02-27T12:31:55.614Z,100767.36
2019-02-27T12:34:25.160Z,100760.30
2019-02-27T12:36:53.206Z,100760.30
2019-02-27T12:39:43.559Z,100756.47
2019-02-27T12:42:12.358Z,100747.77
2019-02-27T12:44:58.982Z,100742.74
2019-02-27T12:47:26.524Z,100725.00
2019-02-27T12:49:54.928Z,100728.73
2019-02-27T12:52:22.775Z,100723.77
2019-02-27T12:54:52.388Z,100721.83
2019-02-27T12:59:54.408Z,100716.75
2019-02-27T13:02:35.793Z,100710.98
2019-02-27T13:07:24.319Z,100704.63
2019-02-27T13:09:51.884Z,100704.77
2019-02-27T13:12:38.316Z,100705.91
2019-02-27T13:15:08.269Z,100704.42
2019-02-27T13:17:47.800Z,100694.76
2019-02-27T13:20:23.932Z,100689.77
2019-02-27T13:22:51.849Z,100690.28
2019-02-27T13:25:39.946Z,100688.89
2019-02-27T13:33:53.297Z,100671.98
2019-02-27T13:36:33.981Z,100664.41
2019-02-27T13:39:08.915Z,100664.41
2019-02-27T13:41:36.970Z,100663.17
2019-02-27T13:44:07.917Z,100656.78
2019-02-27T13:46:36.046Z,100645.86
2019-02-27T13:51:50.283Z,100642.55
2019-02-27T14:00:22.700Z,100630.23
2019-02-27T14:02:39.830Z,100628.08
2019-02-27T14:05:09.161Z,100626.23
2019-02-27T14:16:04.303Z,100609.66
2019-02-27T14:18:32.251Z,100608.65
2019-02-27T14:21:01.748Z,100605.75
2019-02-27T14:23:30.829Z,100594.40
2019-02-27T14:25:58.412Z,100593.22
2019-02-27T14:28:34.397Z,100596.84
2019-02-27T14:31:18.190Z,100590.17
2019-02-27T14:33:54.095Z,100586.30
2019-02-27T14:36:18.234Z,100589.34
2019-02-27T14:38:45.789Z,100589.34
2019-02-27T14:41:14.371Z,100580.26
2019-02-27T14:43:42.706Z,100586.89
2019-02-27T14:46:14.034Z,100580.12
2019-02-27T14:48:45.070Z,100575.92
2019-02-27T14:51:12.647Z,100572.66
2019-02-27T14:53:42.404Z,100572.66
2019-02-27T14:56:11.479Z,100569.17
2019-02-27T14:58:41.965Z,100569.85
2019-02-27T15:01:11.857Z,100553.97
2019-02-27T15:03:43.191Z,100553.97
2019-02-27T15:06:15.928Z,100554.27
2019-02-27T15:08:42.737Z,100551.88
2019-02-27T15:11:13.813Z,100553.60
2019-02-27T15:13:39.604Z,100541.06
2019-02-27T15:16:07.437Z,100540.91
2019-02-27T15:18:36.691Z,100540.91
2019-02-27T15:21:04.234Z,100539.56
2019-02-27T15:23:32.443Z,100532.91
2019-02-27T15:26:00.253Z,100533.55
2019-02-27T15:28:33.030Z,100533.55
2019-02-27T15:31:01.439Z,100527.09
2019-02-27T15:33:28.960Z,100520.07
2019-02-27T15:35:59.093Z,100513.77
2019-02-27T15:38:29.296Z,100511.69
2019-02-27T15:41:03.152Z,100507.05
2019-02-27T15:43:30.953Z,100495.39
2019-02-27T15:46:02.147Z,100495.39
2019-02-27T15:48:29.652Z,100493.73
2019-02-27T15:51:03.254Z,100489.84
2019-02-27T15:53:33.653Z,100489.84
2019-02-27T15:56:05.425Z,100481.54
2019-02-27T15:58:33.971Z,100490.88
2019-02-27T16:01:01.876Z,100490.88
2019-02-27T16:03:31.211Z,100499.09
2019-02-27T16:06:05.190Z,100496.98
2019-02-27T16:08:28.834Z,100493.62
2019-02-27T16:10:59.547Z,100488.31
2019-02-27T16:13:27.138Z,100482.50
2019-02-27T16:15:56.498Z,100480.16
2019-02-27T16:18:25.209Z,100480.16
2019-02-27T16:20:56.120Z,100476.21
2019-02-27T16:23:23.676Z,100470.59
2019-02-27T16:25:54.122Z,100465.55
2019-02-27T16:28:23.535Z,100469.17
2019-02-27T16:31:10.357Z,100464.63
2019-02-27T16:33:38.270Z,100462.05
2019-02-27T16:36:05.914Z,100459.33
2019-02-27T16:38:33.570Z,100454.43
2019-02-27T16:41:04.170Z,100457.23
2019-02-27T16:43:34.327Z,100457.23
2019-02-27T16:48:52.230Z,100455.07
2019-02-27T16:51:19.949Z,100451.70
2019-02-27T16:53:52.356Z,100456.66
2019-02-27T16:59:22.036Z,100456.23
2019-02-27T17:02:08.423Z,100456.23
2019-02-27T17:04:42.808Z,100459.45
2019-02-27T17:07:30.027Z,100458.53
2019-02-27T17:09:58.392Z,100454.77
2019-02-27T17:12:45.792Z,100454.22
2019-02-27T17:15:13.430Z,100447.36
2019-02-27T17:17:59.794Z,100445.83
2019-02-27T17:20:30.246Z,100437.17
2019-02-27T17:23:10.803Z,100442.42
2019-02-27T17:25:45.975Z,100433.58
2019-02-27T17:28:13.682Z,100433.58
2019-02-27T17:30:41.412Z,100428.67
2019-02-27T17:33:09.092Z,100428.69
2019-02-27T17:35:36.556Z,100424.59
2019-02-27T17:38:22.991Z,100428.25
2019-02-27T17:40:52.644Z,100416.22
2019-02-27T17:43:20.192Z,100416.22
2019-02-27T17:45:48.098Z,100412.64
2019-02-27T17:48:18.703Z,100407.92
2019-02-27T17:53:34.623Z,100401.23
2019-02-27T17:56:24.009Z,100396.87
2019-02-27T17:59:10.418Z,100396.87
2019-02-27T18:01:38.107Z,100397.74
2019-02-27T18:04:24.522Z,100387.81
2019-02-27T18:06:54.969Z,100379.31
2019-02-27T18:09:23.515Z,100379.31
2019-02-27T18:11:55.440Z,100377.89
2019-02-27T18:14:33.149Z,100374.00
2019-02-27T18:16:52.199Z,100374.73
2019-02-27T18:19:20.100Z,100373.05
2019-02-27T18:21:47.711Z,100364.05
2019-02-27T18:24:15.334Z,100363.18
2019-02-27T18:26:49.991Z,100363.18
2019-02-27T18:29:17.070Z,100354.80
2019-02-27T18:31:44.559Z,100354.80
2019-02-27T18:34:17.792Z,100354.20
2019-02-27T18:36:46.523Z,100361.50
2019-02-27T18:39:14.706Z,100361.50
2019-02-27T18:41:47.189Z,100356.77
2019-02-27T18:44:12.239Z,100356.63
2019-02-27T18:46:47.149Z,100356.63
2019-02-27T18:49:18.658Z,100356.89
2019-02-27T18:51:44.618Z,100356.89
2019-02-27T18:54:12.132Z,100360.25
2019-02-27T18:56:40.475Z,100366.95
2019-02-27T18:59:08.008Z,100363.04
2019-02-27T19:01:35.750Z,100361.43
2019-02-27T19:04:03.659Z,100358.27
2019-02-27T19:06:31.235Z,100358.27
2019-02-27T19:09:01.116Z,100348.43
2019-02-27T19:11:28.992Z,100344.80
2019-02-27T19:13:56.626Z,100344.31
2019-02-27T19:16:27.548Z,100336.97
2019-02-27T19:19:01.511Z,100336.97
2019-02-27T19:21:33.518Z,100333.00
2019-02-27T19:24:02.934Z,100336.80
2019-02-27T19:26:30.839Z,100336.80
2019-02-27T19:28:59.527Z,100331.05
2019-02-27T19:31:27.959Z,100325.59
2019-02-27T19:33:55.928Z,100320.36
2019-02-27T19:36:42.311Z,100320.91
2019-02-27T19:39:30.398Z,100320.91
2019-02-27T19:42:13.038Z,100315.32
2019-02-27T19:44:48.930Z,100310.48
2019-02-27T19:47:28.716Z,100310.48
2019-02-27T19:52:38.719Z,100301.72
2019-02-27T19:55:06.325Z,100305.39
2019-02-27T19:57:52.752Z,100305.39
2019-02-27T20:00:20.438Z,100301.78
2019-02-27T20:03:06.779Z,100300.58
2019-02-27T20:05:36.265Z,100300.58
2019-02-27T20:08:22.411Z,100304.52
2019-02-27T20:13:38.247Z,100307.98
2019-02-27T20:16:05.864Z,100301.75
2019-02-27T20:18:33.496Z,100303.97
2019-02-27T20:21:19.881Z,100300.61
2019-02-27T20:26:44.794Z,100293.41
2019-02-27T20:29:12.081Z,100294.67
2019-02-27T20:31:40.069Z,100294.12
2019-02-27T20:34:26.452Z,100288.47
2019-02-27T20:37:07.698Z,100288.47
2019-02-27T20:39:44.135Z,100288.70
2019-02-27T20:42:30.489Z,100288.70
2019-02-27T20:45:09.899Z,100280.64
2019-02-27T20:47:46.255Z,100280.94
2019-02-27T20:53:05.121Z,100269.61
2019-02-27T20:55:32.793Z,100263.61
2019-02-27T20:58:19.227Z,100271.66
2019-02-27T21:00:48.463Z,100261.27
2019-02-27T21:03:16.443Z,100261.27
2019-02-27T21:05:44.105Z,100252.44
2019-02-27T21:08:11.802Z,100246.25
2019-02-27T21:10:58.189Z,100252.31
2019-02-27T21:16:30.919Z,100245.11
2019-02-27T21:18:58.618Z,100231.38
2019-02-27T21:21:26.429Z,100231.38
2019-02-27T21:23:54.971Z,100237.50
2019-02-27T21:26:22.950Z,100231.16
2019-02-27T21:28:58.237Z,100232.03
2019-02-27T21:31:26.589Z,100227.21
2019-02-27T21:33:54.683Z,100227.21
2019-02-27T21:36:25.349Z,100223.25
2019-02-27T21:38:52.920Z,100226.13
2019-02-27T21:41:20.382Z,100231.34
2019-02-27T21:43:48.269Z,100231.34
2019-02-27T21:46:17.864Z,100233.91
2019-02-27T21:48:45.154Z,100233.05
2019-02-27T21:51:15.951Z,100237.03
2019-02-27T21:53:43.548Z,100236.95
2019-02-27T21:56:11.103Z,100243.40
2019-02-27T21:58:44.574Z,100241.58
2019-02-27T22:01:12.941Z,100241.58
2019-02-27T22:03:47.633Z,100243.19
2019-02-27T22:06:15.438Z,100231.47
2019-02-27T22:08:46.385Z,100233.45
2019-02-27T22:11:16.719Z,100233.45
2019-02-27T22:13:45.420Z,100232.95
2019-02-27T22:16:13.439Z,100232.95
2019-02-27T22:18:46.751Z,100230.13
2019-02-27T22:21:11.554Z,100238.25
2019-02-27T22:23:39.100Z,100238.25
2019-02-27T22:26:06.646Z,100234.64
2019-02-27T22:28:34.478Z,100232.14
2019-02-27T22:31:06.785Z,100228.44
2019-02-27T22:33:33.311Z,100223.80
2019-02-27T22:36:01.219Z,100225.24
2019-02-27T22:38:28.785Z,100218.03
2019-02-27T22:40:56.373Z,100225.67
2019-02-27T22:43:24.016Z,100222.84
2019-02-27T22:45:51.798Z,100222.84
2019-02-27T22:48:21.213Z,100220.06
2019-02-27T22:50:53.823Z,100221.66
2019-02-27T22:53:22.847Z,100221.66
2019-02-27T22:55:50.365Z,100212.78
2019-02-27T22:58:19.929Z,100212.78
2019-02-27T23:01:08.644Z,100217.10
2019-02-27T23:03:36.177Z,100215.10
2019-02-27T23:06:09.228Z,100208.77
2019-02-27T23:08:36.179Z,100208.77
2019-02-27T23:11:06.533Z,100213.23
2019-02-27T23:13:35.566Z,100209.08
2019-02-27T23:16:03.485Z,100209.08
2019-02-27T23:18:31.046Z,100204.36
2019-02-27T23:20:58.836Z,100204.36
2019-02-27T23:23:26.283Z,100204.36
2019-02-27T23:25:53.821Z,100199.86
2019-02-27T23:28:21.414Z,100193.55
2019-02-27T23:30:49.234Z,100193.34
2019-02-27T23:33:16.928Z,100188.81
2019-02-27T23:35:47.344Z,100187.85
2019-02-27T23:38:13.727Z,100181.31
2019-02-27T23:40:41.609Z,100189.55
2019-02-27T23:43:09.239Z,100189.55
2019-02-27T23:45:36.842Z,100181.70
2019-02-27T23:48:04.984Z,100181.70
2019-02-27T23:50:32.521Z,100183.13
2019-02-27T23:53:00.137Z,100181.70
2019-02-27T23:55:27.720Z,100185.36
2019-02-27T23:57:57.790Z,100174.58
